Vermilion Bay, Canada
Current Conditions -  °F | °C
As of 10:50 AM on Sunday 21 Dec 2014 (Local Time) from CYHD Reporting Station
Light Snow Light Snow  
Wind Chill: 20°   Ceiling: 700
Heat Index: 28°   Visibility: 9mi
Dew Point: 27°   Wind: 8mph
Humidity: 93%   Direction: 150°SSE
Pressure: 29.77"   Gusts: NA
Location:  49.85°N, 93.38°W
Report Text: CYHD 211650Z AUTO 15007KT 9SM -SN BKN007 BKN017 OVC023 M02/M03 A2977 RMK SLP105
Loading
Personal Weather Stations






























Interactive Weather Map New forecast layout! Learn more

10-Day Weather Forecast

Advertisements
Track Severe Weather on mobile